sensor_id;sensor_type;location;lat;lon;timestamp;P1;durP1;ratioP1;P2;durP2;ratioP2
46000;SDS011;72226;48.272;11.180;2023-09-18T00:00:14;5.80;;;5.30;;
46000;SDS011;72226;48.272;11.180;2023-09-18T00:02:39;7.03;;;5.43;;
46000;SDS011;72226;48.272;11.180;2023-09-18T00:05:05;8.98;;;5.90;;
46000;SDS011;72226;48.272;11.180;2023-09-18T00:07:30;7.55;;;6.15;;
46000;SDS011;72226;48.272;11.180;2023-09-18T00:09:56;8.13;;;6.53;;
46000;SDS011;72226;48.272;11.180;2023-09-18T00:12:21;9.25;;;6.68;;
46000;SDS011;72226;48.272;11.180;2023-09-18T00:14:50;6.93;;;6.32;;
46000;SDS011;72226;48.272;11.180;2023-09-18T00:17:16;8.85;;;7.35;;
46000;SDS011;72226;48.272;11.180;2023-09-18T00:19:45;7.13;;;6.15;;
46000;SDS011;72226;48.272;11.180;2023-09-18T00:22:11;12.07;;;7.35;;
46000;SDS011;72226;48.272;11.180;2023-09-18T00:24:36;6.32;;;5.70;;
46000;SDS011;72226;48.272;11.180;2023-09-18T00:27:02;8.57;;;5.97;;
46000;SDS011;72226;48.272;11.180;2023-09-18T00:29:28;10.07;;;5.30;;
46000;SDS011;72226;48.272;11.180;2023-09-18T00:31:53;14.05;;;5.25;;
46000;SDS011;72226;48.272;11.180;2023-09-18T00:34:19;10.27;;;6.40;;
46000;SDS011;72226;48.272;11.180;2023-09-18T00:36:44;12.27;;;5.78;;
46000;SDS011;72226;48.272;11.180;2023-09-18T00:39:09;8.50;;;5.03;;
46000;SDS011;72226;48.272;11.180;2023-09-18T00:41:35;6.80;;;5.97;;
46000;SDS011;72226;48.272;11.180;2023-09-18T00:44:01;8.10;;;5.72;;
46000;SDS011;72226;48.272;11.180;2023-09-18T00:46:26;6.15;;;5.65;;
46000;SDS011;72226;48.272;11.180;2023-09-18T00:48:53;6.22;;;5.47;;
46000;SDS011;72226;48.272;11.180;2023-09-18T00:51:18;7.45;;;5.68;;
46000;SDS011;72226;48.272;11.180;2023-09-18T00:53:45;8.90;;;5.28;;
46000;SDS011;72226;48.272;11.180;2023-09-18T00:56:13;8.45;;;5.72;;
46000;SDS011;72226;48.272;11.180;2023-09-18T00:58:39;9.60;;;6.38;;
46000;SDS011;72226;48.272;11.180;2023-09-18T01:01:05;7.00;;;5.57;;
46000;SDS011;72226;48.272;11.180;2023-09-18T01:03:30;5.45;;;4.57;;
46000;SDS011;72226;48.272;11.180;2023-09-18T01:05:56;6.75;;;5.22;;
46000;SDS011;72226;48.272;11.180;2023-09-18T01:08:22;6.28;;;5.30;;
46000;SDS011;72226;48.272;11.180;2023-09-18T01:10:48;6.25;;;4.93;;
46000;SDS011;72226;48.272;11.180;2023-09-18T01:13:49;6.63;;;4.97;;
46000;SDS011;72226;48.272;11.180;2023-09-18T01:16:20;9.75;;;5.28;;
46000;SDS011;72226;48.272;11.180;2023-09-18T01:18:52;9.48;;;4.68;;
46000;SDS011;72226;48.272;11.180;2023-09-18T01:21:20;8.43;;;5.57;;
46000;SDS011;72226;48.272;11.180;2023-09-18T01:23:46;5.85;;;4.25;;
46000;SDS011;72226;48.272;11.180;2023-09-18T01:26:12;7.82;;;4.63;;
46000;SDS011;72226;48.272;11.180;2023-09-18T01:28:37;6.63;;;5.45;;
46000;SDS011;72226;48.272;11.180;2023-09-18T01:31:02;7.50;;;6.30;;
46000;SDS011;72226;48.272;11.180;2023-09-18T01:33:28;10.18;;;6.10;;
46000;SDS011;72226;48.272;11.180;2023-09-18T01:35:54;7.68;;;5.53;;
46000;SDS011;72226;48.272;11.180;2023-09-18T01:38:22;8.00;;;6.70;;
46000;SDS011;72226;48.272;11.180;2023-09-18T01:40:48;8.93;;;6.88;;
46000;SDS011;72226;48.272;11.180;2023-09-18T01:43:14;9.52;;;6.90;;
46000;SDS011;72226;48.272;11.180;2023-09-18T01:45:40;6.85;;;6.25;;
46000;SDS011;72226;48.272;11.180;2023-09-18T01:48:06;10.40;;;6.18;;
46000;SDS011;72226;48.272;11.180;2023-09-18T01:50:31;7.68;;;6.38;;
46000;SDS011;72226;48.272;11.180;2023-09-18T01:52:58;10.07;;;6.85;;
46000;SDS011;72226;48.272;11.180;2023-09-18T01:55:24;8.45;;;6.60;;
46000;SDS011;72226;48.272;11.180;2023-09-18T01:57:49;9.85;;;6.65;;
46000;SDS011;72226;48.272;11.180;2023-09-18T02:00:14;8.70;;;7.30;;
46000;SDS011;72226;48.272;11.180;2023-09-18T02:02:40;8.63;;;6.35;;
46000;SDS011;72226;48.272;11.180;2023-09-18T02:05:06;9.02;;;6.03;;
46000;SDS011;72226;48.272;11.180;2023-09-18T02:07:31;7.15;;;6.22;;
46000;SDS011;72226;48.272;11.180;2023-09-18T02:09:57;9.98;;;7.25;;
46000;SDS011;72226;48.272;11.180;2023-09-18T02:12:22;6.80;;;6.15;;
46000;SDS011;72226;48.272;11.180;2023-09-18T02:14:48;9.88;;;6.63;;
46000;SDS011;72226;48.272;11.180;2023-09-18T02:17:13;7.65;;;6.90;;
46000;SDS011;72226;48.272;11.180;2023-09-18T02:19:38;8.60;;;6.45;;
46000;SDS011;72226;48.272;11.180;2023-09-18T02:22:04;11.07;;;7.15;;
46000;SDS011;72226;48.272;11.180;2023-09-18T02:24:30;12.70;;;7.38;;
46000;SDS011;72226;48.272;11.180;2023-09-18T02:26:55;9.48;;;6.00;;
46000;SDS011;72226;48.272;11.180;2023-09-18T02:29:20;8.07;;;6.25;;
46000;SDS011;72226;48.272;11.180;2023-09-18T02:31:46;8.98;;;7.07;;
46000;SDS011;72226;48.272;11.180;2023-09-18T02:34:11;10.00;;;7.53;;
46000;SDS011;72226;48.272;11.180;2023-09-18T02:36:36;7.97;;;6.47;;
46000;SDS011;72226;48.272;11.180;2023-09-18T02:39:02;6.40;;;5.80;;
46000;SDS011;72226;48.272;11.180;2023-09-18T02:41:28;10.70;;;7.38;;
46000;SDS011;72226;48.272;11.180;2023-09-18T02:43:53;9.80;;;6.97;;
46000;SDS011;72226;48.272;11.180;2023-09-18T02:46:19;13.13;;;6.28;;
46000;SDS011;72226;48.272;11.180;2023-09-18T02:48:44;13.05;;;6.43;;
46000;SDS011;72226;48.272;11.180;2023-09-18T02:51:09;7.68;;;6.10;;
46000;SDS011;72226;48.272;11.180;2023-09-18T02:53:35;7.47;;;6.00;;
46000;SDS011;72226;48.272;11.180;2023-09-18T02:56:00;6.88;;;5.57;;
46000;SDS011;72226;48.272;11.180;2023-09-18T02:58:26;9.73;;;5.30;;
46000;SDS011;72226;48.272;11.180;2023-09-18T03:00:54;9.07;;;4.30;;
46000;SDS011;72226;48.272;11.180;2023-09-18T03:03:20;10.25;;;5.22;;
46000;SDS011;72226;48.272;11.180;2023-09-18T03:05:45;7.15;;;4.97;;
46000;SDS011;72226;48.272;11.180;2023-09-18T03:08:11;7.03;;;5.55;;
46000;SDS011;72226;48.272;11.180;2023-09-18T03:10:38;5.93;;;4.95;;
46000;SDS011;72226;48.272;11.180;2023-09-18T03:13:05;5.22;;;4.65;;
46000;SDS011;72226;48.272;11.180;2023-09-18T03:15:32;6.40;;;5.80;;
46000;SDS011;72226;48.272;11.180;2023-09-18T03:17:58;7.63;;;6.88;;
46000;SDS011;72226;48.272;11.180;2023-09-18T03:20:24;7.07;;;5.75;;
46000;SDS011;72226;48.272;11.180;2023-09-18T03:22:52;11.27;;;5.45;;
46000;SDS011;72226;48.272;11.180;2023-09-18T03:25:18;15.90;;;6.72;;
46000;SDS011;72226;48.272;11.180;2023-09-18T03:27:44;15.15;;;5.43;;
46000;SDS011;72226;48.272;11.180;2023-09-18T03:30:09;9.82;;;5.32;;
46000;SDS011;72226;48.272;11.180;2023-09-18T03:32:37;6.75;;;5.22;;
46000;SDS011;72226;48.272;11.180;2023-09-18T03:35:03;6.22;;;5.65;;
46000;SDS011;72226;48.272;11.180;2023-09-18T03:37:29;9.00;;;4.90;;
46000;SDS011;72226;48.272;11.180;2023-09-18T03:39:54;8.15;;;6.05;;
46000;SDS011;72226;48.272;11.180;2023-09-18T03:42:20;5.80;;;5.20;;
46000;SDS011;72226;48.272;11.180;2023-09-18T03:44:46;7.43;;;6.60;;
46000;SDS011;72226;48.272;11.180;2023-09-18T03:47:11;7.57;;;6.18;;
46000;SDS011;72226;48.272;11.180;2023-09-18T03:49:36;9.73;;;5.90;;
46000;SDS011;72226;48.272;11.180;2023-09-18T03:52:02;12.23;;;6.15;;
46000;SDS011;72226;48.272;11.180;2023-09-18T03:54:27;8.88;;;4.38;;
46000;SDS011;72226;48.272;11.180;2023-09-18T03:56:53;8.32;;;4.53;;
46000;SDS011;72226;48.272;11.180;2023-09-18T03:59:18;4.88;;;3.95;;
46000;SDS011;72226;48.272;11.180;2023-09-18T04:01:43;7.18;;;4.15;;
46000;SDS011;72226;48.272;11.180;2023-09-18T04:04:10;3.58;;;3.28;;
46000;SDS011;72226;48.272;11.180;2023-09-18T04:06:44;4.07;;;3.47;;
46000;SDS011;72226;48.272;11.180;2023-09-18T04:09:11;7.10;;;5.13;;
46000;SDS011;72226;48.272;11.180;2023-09-18T04:11:36;4.78;;;4.38;;
46000;SDS011;72226;48.272;11.180;2023-09-18T04:14:02;5.60;;;5.00;;
46000;SDS011;72226;48.272;11.180;2023-09-18T04:16:28;8.40;;;4.88;;
46000;SDS011;72226;48.272;11.180;2023-09-18T04:18:55;5.13;;;4.05;;
46000;SDS011;72226;48.272;11.180;2023-09-18T04:21:21;6.97;;;4.63;;
46000;SDS011;72226;48.272;11.180;2023-09-18T04:23:47;7.63;;;4.90;;
46000;SDS011;72226;48.272;11.180;2023-09-18T04:26:12;5.57;;;5.07;;
46000;SDS011;72226;48.272;11.180;2023-09-18T04:28:41;9.00;;;4.97;;
46000;SDS011;72226;48.272;11.180;2023-09-18T04:31:07;7.68;;;4.32;;
46000;SDS011;72226;48.272;11.180;2023-09-18T04:33:32;6.78;;;5.15;;
46000;SDS011;72226;48.272;11.180;2023-09-18T04:35:58;8.38;;;5.57;;
46000;SDS011;72226;48.272;11.180;2023-09-18T04:38:23;6.93;;;5.43;;
46000;SDS011;72226;48.272;11.180;2023-09-18T04:40:48;5.35;;;4.72;;
46000;SDS011;72226;48.272;11.180;2023-09-18T04:43:14;5.65;;;5.05;;
46000;SDS011;72226;48.272;11.180;2023-09-18T04:45:39;7.65;;;5.20;;
46000;SDS011;72226;48.272;11.180;2023-09-18T04:48:05;8.77;;;4.72;;
46000;SDS011;72226;48.272;11.180;2023-09-18T04:50:33;4.78;;;4.03;;
46000;SDS011;72226;48.272;11.180;2023-09-18T04:53:01;7.75;;;4.88;;
46000;SDS011;72226;48.272;11.180;2023-09-18T04:55:27;7.78;;;4.30;;
46000;SDS011;72226;48.272;11.180;2023-09-18T04:57:52;5.57;;;4.10;;
46000;SDS011;72226;48.272;11.180;2023-09-18T05:00:17;5.75;;;3.85;;
46000;SDS011;72226;48.272;11.180;2023-09-18T05:02:48;7.82;;;4.60;;
46000;SDS011;72226;48.272;11.180;2023-09-18T05:05:14;5.53;;;4.80;;
46000;SDS011;72226;48.272;11.180;2023-09-18T05:07:39;6.20;;;5.60;;
46000;SDS011;72226;48.272;11.180;2023-09-18T05:10:04;5.68;;;4.80;;
46000;SDS011;72226;48.272;11.180;2023-09-18T05:12:30;5.03;;;4.05;;
46000;SDS011;72226;48.272;11.180;2023-09-18T05:14:55;5.93;;;4.63;;
46000;SDS011;72226;48.272;11.180;2023-09-18T05:17:27;6.18;;;4.28;;
46000;SDS011;72226;48.272;11.180;2023-09-18T05:22:32;7.95;;;5.22;;
46000;SDS011;72226;48.272;11.180;2023-09-18T05:24:58;8.73;;;4.78;;
46000;SDS011;72226;48.272;11.180;2023-09-18T05:27:24;7.18;;;4.97;;
46000;SDS011;72226;48.272;11.180;2023-09-18T05:29:50;8.85;;;5.00;;
46000;SDS011;72226;48.272;11.180;2023-09-18T05:32:15;5.72;;;5.13;;
46000;SDS011;72226;48.272;11.180;2023-09-18T05:34:41;6.38;;;5.47;;
46000;SDS011;72226;48.272;11.180;2023-09-18T05:37:06;6.70;;;5.95;;
46000;SDS011;72226;48.272;11.180;2023-09-18T05:39:31;6.95;;;5.38;;
46000;SDS011;72226;48.272;11.180;2023-09-18T05:41:57;7.90;;;5.80;;
46000;SDS011;72226;48.272;11.180;2023-09-18T05:44:23;7.53;;;5.28;;
46000;SDS011;72226;48.272;11.180;2023-09-18T05:46:48;7.10;;;4.80;;
46000;SDS011;72226;48.272;11.180;2023-09-18T05:49:14;7.18;;;5.75;;
46000;SDS011;72226;48.272;11.180;2023-09-18T05:51:39;7.90;;;5.22;;
46000;SDS011;72226;48.272;11.180;2023-09-18T05:54:05;6.35;;;5.30;;
46000;SDS011;72226;48.272;11.180;2023-09-18T05:56:30;8.85;;;4.95;;
46000;SDS011;72226;48.272;11.180;2023-09-18T05:58:55;5.90;;;5.30;;
46000;SDS011;72226;48.272;11.180;2023-09-18T06:01:21;6.60;;;5.65;;
46000;SDS011;72226;48.272;11.180;2023-09-18T06:03:47;9.90;;;5.43;;
46000;SDS011;72226;48.272;11.180;2023-09-18T06:06:12;6.15;;;5.55;;
46000;SDS011;72226;48.272;11.180;2023-09-18T06:08:38;10.10;;;5.93;;
46000;SDS011;72226;48.272;11.180;2023-09-18T06:11:03;8.25;;;5.03;;
46000;SDS011;72226;48.272;11.180;2023-09-18T06:13:28;4.93;;;4.47;;
46000;SDS011;72226;48.272;11.180;2023-09-18T06:15:54;5.57;;;4.22;;
46000;SDS011;72226;48.272;11.180;2023-09-18T06:18:21;11.70;;;5.90;;
46000;SDS011;72226;48.272;11.180;2023-09-18T06:20:47;6.53;;;5.05;;
46000;SDS011;72226;48.272;11.180;2023-09-18T06:23:13;6.50;;;5.90;;
46000;SDS011;72226;48.272;11.180;2023-09-18T06:25:41;7.35;;;5.95;;
46000;SDS011;72226;48.272;11.180;2023-09-18T06:28:06;9.15;;;6.50;;
46000;SDS011;72226;48.272;11.180;2023-09-18T06:30:32;7.53;;;6.82;;
46000;SDS011;72226;48.272;11.180;2023-09-18T06:33:01;13.13;;;8.77;;
46000;SDS011;72226;48.272;11.180;2023-09-18T06:35:26;10.95;;;9.30;;
46000;SDS011;72226;48.272;11.180;2023-09-18T06:37:52;10.65;;;9.35;;
46000;SDS011;72226;48.272;11.180;2023-09-18T06:40:19;10.68;;;9.70;;
46000;SDS011;72226;48.272;11.180;2023-09-18T06:42:45;10.75;;;9.73;;
46000;SDS011;72226;48.272;11.180;2023-09-18T06:45:10;12.38;;;9.70;;
46000;SDS011;72226;48.272;11.180;2023-09-18T06:47:36;10.35;;;8.43;;
46000;SDS011;72226;48.272;11.180;2023-09-18T06:50:02;9.15;;;7.75;;
46000;SDS011;72226;48.272;11.180;2023-09-18T06:52:29;9.07;;;8.15;;
46000;SDS011;72226;48.272;11.180;2023-09-18T06:54:55;8.18;;;7.35;;
46000;SDS011;72226;48.272;11.180;2023-09-18T06:57:20;9.40;;;8.10;;
46000;SDS011;72226;48.272;11.180;2023-09-18T06:59:48;7.95;;;7.13;;
46000;SDS011;72226;48.272;11.180;2023-09-18T07:02:13;12.88;;;7.88;;
46000;SDS011;72226;48.272;11.180;2023-09-18T07:04:42;11.48;;;9.40;;
46000;SDS011;72226;48.272;11.180;2023-09-18T07:07:14;8.02;;;7.25;;
46000;SDS011;72226;48.272;11.180;2023-09-18T07:09:40;9.38;;;7.93;;
46000;SDS011;72226;48.272;11.180;2023-09-18T07:12:07;8.55;;;7.75;;
46000;SDS011;72226;48.272;11.180;2023-09-18T07:14:36;9.25;;;7.13;;
46000;SDS011;72226;48.272;11.180;2023-09-18T07:17:03;8.60;;;7.25;;
46000;SDS011;72226;48.272;11.180;2023-09-18T07:19:29;8.82;;;7.97;;
46000;SDS011;72226;48.272;11.180;2023-09-18T07:21:54;10.43;;;7.88;;
46000;SDS011;72226;48.272;11.180;2023-09-18T07:24:19;19.27;;;13.63;;
46000;SDS011;72226;48.272;11.180;2023-09-18T07:26:46;9.93;;;8.98;;
46000;SDS011;72226;48.272;11.180;2023-09-18T07:29:12;24.73;;;20.27;;
46000;SDS011;72226;48.272;11.180;2023-09-18T07:31:40;11.00;;;9.80;;
46000;SDS011;72226;48.272;11.180;2023-09-18T07:34:06;10.77;;;7.72;;
46000;SDS011;72226;48.272;11.180;2023-09-18T07:36:31;8.57;;;7.75;;
46000;SDS011;72226;48.272;11.180;2023-09-18T07:38:57;9.35;;;7.57;;
46000;SDS011;72226;48.272;11.180;2023-09-18T07:41:22;8.07;;;7.38;;
46000;SDS011;72226;48.272;11.180;2023-09-18T07:43:48;10.13;;;7.28;;
46000;SDS011;72226;48.272;11.180;2023-09-18T07:46:13;6.97;;;6.28;;
46000;SDS011;72226;48.272;11.180;2023-09-18T07:48:39;12.88;;;6.97;;
46000;SDS011;72226;48.272;11.180;2023-09-18T07:51:04;8.75;;;6.93;;
46000;SDS011;72226;48.272;11.180;2023-09-18T07:53:30;8.02;;;7.20;;
46000;SDS011;72226;48.272;11.180;2023-09-18T07:55:55;8.65;;;7.75;;
46000;SDS011;72226;48.272;11.180;2023-09-18T07:58:23;12.48;;;7.53;;
46000;SDS011;72226;48.272;11.180;2023-09-18T08:00:52;7.45;;;6.25;;
46000;SDS011;72226;48.272;11.180;2023-09-18T08:03:19;7.80;;;6.65;;
46000;SDS011;72226;48.272;11.180;2023-09-18T08:05:44;12.20;;;6.70;;
46000;SDS011;72226;48.272;11.180;2023-09-18T08:08:10;7.80;;;6.38;;
46000;SDS011;72226;48.272;11.180;2023-09-18T08:10:36;7.05;;;6.35;;
46000;SDS011;72226;48.272;11.180;2023-09-18T08:13:02;7.57;;;5.93;;
46000;SDS011;72226;48.272;11.180;2023-09-18T08:15:28;7.20;;;6.00;;
46000;SDS011;72226;48.272;11.180;2023-09-18T08:17:54;7.63;;;6.13;;
46000;SDS011;72226;48.272;11.180;2023-09-18T08:20:19;8.98;;;6.43;;
46000;SDS011;72226;48.272;11.180;2023-09-18T08:22:45;7.15;;;6.00;;
46000;SDS011;72226;48.272;11.180;2023-09-18T08:25:12;7.70;;;6.38;;
46000;SDS011;72226;48.272;11.180;2023-09-18T08:27:39;6.68;;;5.93;;
46000;SDS011;72226;48.272;11.180;2023-09-18T08:30:08;6.43;;;5.60;;
46000;SDS011;72226;48.272;11.180;2023-09-18T08:32:36;6.25;;;5.63;;
46000;SDS011;72226;48.272;11.180;2023-09-18T08:35:02;6.90;;;6.00;;
46000;SDS011;72226;48.272;11.180;2023-09-18T08:37:28;8.77;;;6.10;;
46000;SDS011;72226;48.272;11.180;2023-09-18T08:39:54;7.15;;;6.45;;
46000;SDS011;72226;48.272;11.180;2023-09-18T08:42:20;6.50;;;5.90;;
46000;SDS011;72226;48.272;11.180;2023-09-18T08:44:48;6.70;;;5.95;;
46000;SDS011;72226;48.272;11.180;2023-09-18T08:47:16;9.75;;;6.55;;
46000;SDS011;72226;48.272;11.180;2023-09-18T08:49:44;10.27;;;7.22;;
46000;SDS011;72226;48.272;11.180;2023-09-18T08:52:11;6.97;;;5.78;;
46000;SDS011;72226;48.272;11.180;2023-09-18T08:54:40;23.75;;;8.32;;
46000;SDS011;72226;48.272;11.180;2023-09-18T08:57:05;7.65;;;5.30;;
46000;SDS011;72226;48.272;11.180;2023-09-18T08:59:33;7.78;;;5.85;;
46000;SDS011;72226;48.272;11.180;2023-09-18T09:02:00;8.82;;;4.85;;
46000;SDS011;72226;48.272;11.180;2023-09-18T09:04:26;5.35;;;4.45;;
46000;SDS011;72226;48.272;11.180;2023-09-18T09:06:51;5.13;;;4.70;;
46000;SDS011;72226;48.272;11.180;2023-09-18T09:09:17;5.85;;;5.10;;
46000;SDS011;72226;48.272;11.180;2023-09-18T09:11:50;4.75;;;4.18;;
46000;SDS011;72226;48.272;11.180;2023-09-18T09:14:16;7.88;;;4.88;;
46000;SDS011;72226;48.272;11.180;2023-09-18T09:16:52;7.07;;;4.57;;
46000;SDS011;72226;48.272;11.180;2023-09-18T09:19:27;6.88;;;4.25;;
46000;SDS011;72226;48.272;11.180;2023-09-18T09:21:55;7.60;;;4.65;;
46000;SDS011;72226;48.272;11.180;2023-09-18T09:24:40;5.03;;;4.15;;
46000;SDS011;72226;48.272;11.180;2023-09-18T09:27:07;7.22;;;4.38;;
46000;SDS011;72226;48.272;11.180;2023-09-18T09:29:33;10.57;;;4.82;;
46000;SDS011;72226;48.272;11.180;2023-09-18T09:32:32;6.70;;;4.68;;
46000;SDS011;72226;48.272;11.180;2023-09-18T09:34:56;10.85;;;6.55;;
46000;SDS011;72226;48.272;11.180;2023-09-18T09:37:31;6.28;;;3.95;;
46000;SDS011;72226;48.272;11.180;2023-09-18T09:39:56;4.80;;;4.07;;
46000;SDS011;72226;48.272;11.180;2023-09-18T09:42:24;8.13;;;4.32;;
46000;SDS011;72226;48.272;11.180;2023-09-18T09:45:09;4.57;;;3.53;;
46000;SDS011;72226;48.272;11.180;2023-09-18T09:47:41;6.10;;;4.28;;
46000;SDS011;72226;48.272;11.180;2023-09-18T09:50:11;5.32;;;3.80;;
46000;SDS011;72226;48.272;11.180;2023-09-18T09:52:46;7.53;;;3.70;;
46000;SDS011;72226;48.272;11.180;2023-09-18T09:58:04;8.55;;;3.40;;
46000;SDS011;72226;48.272;11.180;2023-09-18T10:00:31;6.57;;;3.47;;
46000;SDS011;72226;48.272;11.180;2023-09-18T10:03:19;6.05;;;3.25;;
46000;SDS011;72226;48.272;11.180;2023-09-18T10:05:46;7.55;;;3.75;;
46000;SDS011;72226;48.272;11.180;2023-09-18T10:10:48;13.05;;;4.03;;
46000;SDS011;72226;48.272;11.180;2023-09-18T10:15:45;7.63;;;2.85;;
46000;SDS011;72226;48.272;11.180;2023-09-18T10:18:38;8.25;;;2.33;;
46000;SDS011;72226;48.272;11.180;2023-09-18T10:21:22;7.38;;;2.67;;
46000;SDS011;72226;48.272;11.180;2023-09-18T10:24:15;8.73;;;3.50;;
46000;SDS011;72226;48.272;11.180;2023-09-18T10:26:54;11.80;;;3.53;;
46000;SDS011;72226;48.272;11.180;2023-09-18T10:29:21;9.95;;;2.67;;
46000;SDS011;72226;48.272;11.180;2023-09-18T10:31:48;5.57;;;3.33;;
46000;SDS011;72226;48.272;11.180;2023-09-18T10:34:16;13.60;;;2.78;;
46000;SDS011;72226;48.272;11.180;2023-09-18T10:36:42;7.47;;;2.08;;
46000;SDS011;72226;48.272;11.180;2023-09-18T10:39:09;9.15;;;3.25;;
46000;SDS011;72226;48.272;11.180;2023-09-18T10:41:37;12.30;;;4.40;;
46000;SDS011;72226;48.272;11.180;2023-09-18T10:44:03;17.45;;;5.68;;
46000;SDS011;72226;48.272;11.180;2023-09-18T10:46:29;10.48;;;3.08;;
46000;SDS011;72226;48.272;11.180;2023-09-18T10:48:55;10.18;;;3.38;;
46000;SDS011;72226;48.272;11.180;2023-09-18T10:51:22;7.22;;;3.08;;
46000;SDS011;72226;48.272;11.180;2023-09-18T10:53:49;15.00;;;3.58;;
46000;SDS011;72226;48.272;11.180;2023-09-18T10:56:17;15.82;;;2.78;;
46000;SDS011;72226;48.272;11.180;2023-09-18T10:58:44;20.27;;;3.88;;
46000;SDS011;72226;48.272;11.180;2023-09-18T11:01:13;5.72;;;2.85;;
46000;SDS011;72226;48.272;11.180;2023-09-18T11:03:39;10.63;;;3.85;;
46000;SDS011;72226;48.272;11.180;2023-09-18T11:06:10;8.40;;;3.10;;
46000;SDS011;72226;48.272;11.180;2023-09-18T11:08:43;7.57;;;2.30;;
46000;SDS011;72226;48.272;11.180;2023-09-18T11:11:10;7.78;;;2.70;;
46000;SDS011;72226;48.272;11.180;2023-09-18T11:13:46;8.73;;;2.33;;
46000;SDS011;72226;48.272;11.180;2023-09-18T11:21:28;13.20;;;2.60;;
46000;SDS011;72226;48.272;11.180;2023-09-18T11:24:01;5.10;;;1.90;;
46000;SDS011;72226;48.272;11.180;2023-09-18T11:26:32;7.35;;;2.40;;
46000;SDS011;72226;48.272;11.180;2023-09-18T11:29:06;8.45;;;1.75;;
46000;SDS011;72226;48.272;11.180;2023-09-18T11:31:47;3.67;;;1.90;;
46000;SDS011;72226;48.272;11.180;2023-09-18T11:34:13;3.05;;;1.50;;
46000;SDS011;72226;48.272;11.180;2023-09-18T11:36:40;6.97;;;2.03;;
46000;SDS011;72226;48.272;11.180;2023-09-18T11:39:05;4.53;;;1.67;;
46000;SDS011;72226;48.272;11.180;2023-09-18T11:41:32;6.45;;;1.92;;
46000;SDS011;72226;48.272;11.180;2023-09-18T11:46:50;3.55;;;1.48;;
46000;SDS011;72226;48.272;11.180;2023-09-18T11:49:23;10.60;;;1.88;;
46000;SDS011;72226;48.272;11.180;2023-09-18T11:51:53;5.22;;;1.67;;
46000;SDS011;72226;48.272;11.180;2023-09-18T11:54:23;3.90;;;1.48;;
46000;SDS011;72226;48.272;11.180;2023-09-18T11:56:49;6.40;;;1.30;;
46000;SDS011;72226;48.272;11.180;2023-09-18T11:59:14;5.82;;;1.65;;
46000;SDS011;72226;48.272;11.180;2023-09-18T12:01:40;5.57;;;1.23;;
46000;SDS011;72226;48.272;11.180;2023-09-18T12:04:06;4.15;;;1.33;;
46000;SDS011;72226;48.272;11.180;2023-09-18T12:06:33;7.30;;;1.48;;
46000;SDS011;72226;48.272;11.180;2023-09-18T12:09:03;3.83;;;1.20;;
46000;SDS011;72226;48.272;11.180;2023-09-18T12:11:29;4.32;;;1.58;;
46000;SDS011;72226;48.272;11.180;2023-09-18T12:13:55;3.45;;;1.33;;
46000;SDS011;72226;48.272;11.180;2023-09-18T12:16:20;4.38;;;1.08;;
46000;SDS011;72226;48.272;11.180;2023-09-18T12:18:46;4.03;;;1.25;;
46000;SDS011;72226;48.272;11.180;2023-09-18T12:21:13;8.60;;;3.95;;
46000;SDS011;72226;48.272;11.180;2023-09-18T12:23:40;9.70;;;3.92;;
46000;SDS011;72226;48.272;11.180;2023-09-18T12:26:09;13.65;;;10.95;;
46000;SDS011;72226;48.272;11.180;2023-09-18T12:28:40;5.05;;;1.63;;
46000;SDS011;72226;48.272;11.180;2023-09-18T12:31:06;8.93;;;2.67;;
46000;SDS011;72226;48.272;11.180;2023-09-18T12:33:35;2.88;;;1.63;;
46000;SDS011;72226;48.272;11.180;2023-09-18T12:36:02;4.18;;;1.10;;
46000;SDS011;72226;48.272;11.180;2023-09-18T12:38:30;2.83;;;1.15;;
46000;SDS011;72226;48.272;11.180;2023-09-18T12:40:56;4.38;;;1.45;;
46000;SDS011;72226;48.272;11.180;2023-09-18T12:43:25;6.15;;;1.52;;
46000;SDS011;72226;48.272;11.180;2023-09-18T12:45:54;4.72;;;0.90;;
46000;SDS011;72226;48.272;11.180;2023-09-18T12:48:20;3.03;;;1.42;;
46000;SDS011;72226;48.272;11.180;2023-09-18T12:50:47;4.22;;;1.23;;
46000;SDS011;72226;48.272;11.180;2023-09-18T12:53:21;3.13;;;1.00;;
46000;SDS011;72226;48.272;11.180;2023-09-18T12:55:47;2.13;;;0.73;;
46000;SDS011;72226;48.272;11.180;2023-09-18T12:58:13;3.85;;;1.15;;
46000;SDS011;72226;48.272;11.180;2023-09-18T13:00:49;4.50;;;1.25;;
46000;SDS011;72226;48.272;11.180;2023-09-18T13:03:15;3.95;;;1.40;;
46000;SDS011;72226;48.272;11.180;2023-09-18T13:05:41;1.33;;;0.90;;
46000;SDS011;72226;48.272;11.180;2023-09-18T13:08:06;3.88;;;1.02;;
46000;SDS011;72226;48.272;11.180;2023-09-18T13:10:46;7.38;;;2.80;;
46000;SDS011;72226;48.272;11.180;2023-09-18T13:13:18;9.90;;;1.30;;
46000;SDS011;72226;48.272;11.180;2023-09-18T13:15:45;3.95;;;2.28;;
46000;SDS011;72226;48.272;11.180;2023-09-18T13:18:12;5.80;;;3.45;;
46000;SDS011;72226;48.272;11.180;2023-09-18T13:20:38;2.92;;;1.23;;
46000;SDS011;72226;48.272;11.180;2023-09-18T13:23:05;5.63;;;3.20;;
46000;SDS011;72226;48.272;11.180;2023-09-18T13:25:35;4.82;;;1.38;;
46000;SDS011;72226;48.272;11.180;2023-09-18T13:28:03;3.63;;;1.13;;
46000;SDS011;72226;48.272;11.180;2023-09-18T13:30:31;8.40;;;1.33;;
46000;SDS011;72226;48.272;11.180;2023-09-18T13:33:02;2.17;;;1.48;;
46000;SDS011;72226;48.272;11.180;2023-09-18T13:35:29;3.30;;;2.03;;
46000;SDS011;72226;48.272;11.180;2023-09-18T13:37:55;1.48;;;0.88;;
46000;SDS011;72226;48.272;11.180;2023-09-18T13:40:20;3.63;;;1.90;;
46000;SDS011;72226;48.272;11.180;2023-09-18T13:42:47;3.38;;;1.23;;
46000;SDS011;72226;48.272;11.180;2023-09-18T13:45:14;4.15;;;1.65;;
46000;SDS011;72226;48.272;11.180;2023-09-18T13:47:41;4.10;;;1.20;;
46000;SDS011;72226;48.272;11.180;2023-09-18T13:50:07;1.80;;;0.98;;
46000;SDS011;72226;48.272;11.180;2023-09-18T13:52:33;4.53;;;1.27;;
46000;SDS011;72226;48.272;11.180;2023-09-18T13:54:59;4.00;;;2.10;;
46000;SDS011;72226;48.272;11.180;2023-09-18T13:57:25;3.03;;;1.52;;
46000;SDS011;72226;48.272;11.180;2023-09-18T13:59:51;6.40;;;2.65;;
46000;SDS011;72226;48.272;11.180;2023-09-18T14:02:17;2.42;;;1.88;;
46000;SDS011;72226;48.272;11.180;2023-09-18T14:04:43;2.95;;;1.45;;
46000;SDS011;72226;48.272;11.180;2023-09-18T14:07:09;4.40;;;1.67;;
46000;SDS011;72226;48.272;11.180;2023-09-18T14:09:36;2.20;;;1.05;;
46000;SDS011;72226;48.272;11.180;2023-09-18T14:12:02;4.80;;;0.95;;
46000;SDS011;72226;48.272;11.180;2023-09-18T14:14:28;4.38;;;1.30;;
46000;SDS011;72226;48.272;11.180;2023-09-18T14:16:53;2.40;;;1.48;;
46000;SDS011;72226;48.272;11.180;2023-09-18T14:19:19;2.53;;;1.02;;
46000;SDS011;72226;48.272;11.180;2023-09-18T14:21:44;3.15;;;1.35;;
46000;SDS011;72226;48.272;11.180;2023-09-18T14:24:10;1.67;;;1.00;;
46000;SDS011;72226;48.272;11.180;2023-09-18T14:26:36;1.70;;;1.20;;
46000;SDS011;72226;48.272;11.180;2023-09-18T14:29:09;2.67;;;1.40;;
46000;SDS011;72226;48.272;11.180;2023-09-18T14:31:38;2.33;;;1.23;;
46000;SDS011;72226;48.272;11.180;2023-09-18T14:34:03;1.95;;;1.00;;
46000;SDS011;72226;48.272;11.180;2023-09-18T14:36:32;1.63;;;0.70;;
46000;SDS011;72226;48.272;11.180;2023-09-18T14:39:01;1.17;;;0.60;;
46000;SDS011;72226;48.272;11.180;2023-09-18T14:41:27;2.35;;;0.93;;
46000;SDS011;72226;48.272;11.180;2023-09-18T14:43:53;1.17;;;0.90;;
46000;SDS011;72226;48.272;11.180;2023-09-18T14:46:19;6.47;;;1.00;;
46000;SDS011;72226;48.272;11.180;2023-09-18T14:48:46;1.80;;;1.00;;
46000;SDS011;72226;48.272;11.180;2023-09-18T14:51:11;2.80;;;0.68;;